createdAt,value
2023-01-27T00:04:46.928Z,22.56
2023-01-27T00:09:54.149Z,22.60
2023-01-27T00:15:01.303Z,22.63
2023-01-27T00:20:08.495Z,22.73
2023-01-27T00:25:15.689Z,22.76
2023-01-27T00:30:22.855Z,22.82
2023-01-27T00:35:30.099Z,22.76
2023-01-27T00:40:37.365Z,22.91
2023-01-27T00:45:44.501Z,22.95
2023-01-27T00:50:51.709Z,23.02
2023-01-27T00:55:58.925Z,23.13
2023-01-27T01:01:06.202Z,23.16
2023-01-27T01:06:13.369Z,23.29
2023-01-27T01:11:20.554Z,23.39
2023-01-27T01:16:27.790Z,23.52
2023-01-27T01:21:34.915Z,23.54
2023-01-27T01:26:42.125Z,23.59
2023-01-27T01:31:49.334Z,23.69
2023-01-27T01:36:56.455Z,23.77
2023-01-27T01:42:03.670Z,23.88
2023-01-27T01:47:10.941Z,23.92
2023-01-27T01:52:18.112Z,23.99
2023-01-27T01:57:25.331Z,24.05
2023-01-27T02:02:32.570Z,24.15
2023-01-27T02:07:39.777Z,24.18
2023-01-27T02:12:47.049Z,24.12
2023-01-27T02:17:54.279Z,23.97
2023-01-27T02:23:01.609Z,24.16
2023-01-27T02:28:08.768Z,24.13
2023-01-27T02:33:15.939Z,24.05
2023-01-27T02:38:23.083Z,24.11
2023-01-27T02:43:30.288Z,24.30
2023-01-27T02:48:37.448Z,24.07
2023-01-27T02:53:44.733Z,24.19
2023-01-27T02:58:51.961Z,24.14
2023-01-27T03:03:59.119Z,24.18
2023-01-27T03:09:06.355Z,24.14
2023-01-27T03:14:13.607Z,24.25
2023-01-27T03:19:20.878Z,24.23
2023-01-27T03:24:28.169Z,24.26
2023-01-27T03:29:35.271Z,24.38
2023-01-27T03:34:42.413Z,24.36
2023-01-27T03:39:49.701Z,24.61
2023-01-27T03:44:56.907Z,24.99
2023-01-27T03:50:04.066Z,25.04
2023-01-27T03:55:11.699Z,25.07
2023-01-27T04:00:18.555Z,25.08
2023-01-27T04:05:25.949Z,25.11
2023-01-27T04:10:33.112Z,25.08
2023-01-27T04:15:40.353Z,25.10
2023-01-27T04:20:47.455Z,25.15
2023-01-27T04:25:54.665Z,25.19
2023-01-27T04:31:02.077Z,25.19
2023-01-27T04:36:09.122Z,25.17
2023-01-27T04:41:16.318Z,25.24
2023-01-27T04:46:23.537Z,25.20
2023-01-27T04:51:30.804Z,25.22
2023-01-27T04:56:38.050Z,25.29
2023-01-27T05:01:45.315Z,25.32
2023-01-27T05:06:52.447Z,25.33
2023-01-27T05:11:59.623Z,25.33
2023-01-27T05:17:07.137Z,25.34
2023-01-27T05:22:14.089Z,25.33
2023-01-27T05:27:21.295Z,25.32
2023-01-27T05:32:28.582Z,25.30
2023-01-27T05:37:35.755Z,25.30
2023-01-27T05:42:42.944Z,25.29
2023-01-27T05:47:50.131Z,25.28
2023-01-27T05:52:57.294Z,25.30
2023-01-27T05:58:04.483Z,25.36
2023-01-27T06:03:11.786Z,25.38
2023-01-27T06:08:18.947Z,25.42
2023-01-27T06:13:26.224Z,25.44
2023-01-27T06:18:33.589Z,25.42
2023-01-27T06:23:40.717Z,25.47
2023-01-27T06:28:47.874Z,25.52
2023-01-27T06:33:55.115Z,25.50
2023-01-27T06:39:02.265Z,25.51
2023-01-27T06:44:09.502Z,25.46
2023-01-27T06:49:16.746Z,25.47
2023-01-27T06:54:23.912Z,25.39
2023-01-27T06:59:31.172Z,25.38
2023-01-27T07:04:38.435Z,25.39
2023-01-27T07:09:52.464Z,25.44
2023-01-27T07:14:52.906Z,25.45
2023-01-27T07:20:00.184Z,25.46
2023-01-27T07:25:07.353Z,25.48
2023-01-27T07:30:15.130Z,25.58
2023-01-27T07:35:21.843Z,25.56
2023-01-27T07:40:29.160Z,25.61
2023-01-27T07:45:36.259Z,25.63
2023-01-27T07:50:43.397Z,25.67
2023-01-27T07:55:50.545Z,25.74
2023-01-27T08:00:57.814Z,25.66
2023-01-27T08:06:05.101Z,25.63
2023-01-27T08:11:12.344Z,25.56
2023-01-27T08:16:19.626Z,25.56
2023-01-27T08:21:26.785Z,25.48
2023-01-27T08:26:34.089Z,25.78
2023-01-27T08:31:41.498Z,25.21
2023-01-27T08:36:48.650Z,24.74
2023-01-27T08:41:55.788Z,24.43
2023-01-27T08:47:03.023Z,24.01
2023-01-27T08:52:10.390Z,23.95
2023-01-27T08:57:17.554Z,23.59
2023-01-27T09:02:24.691Z,23.59
2023-01-27T09:07:31.909Z,23.37
2023-01-27T09:12:39.094Z,23.44
2023-01-27T09:17:46.302Z,22.93
2023-01-27T09:22:53.492Z,22.64
2023-01-27T09:28:00.637Z,22.63
2023-01-27T09:33:07.955Z,22.55
2023-01-27T09:38:15.170Z,22.49
2023-01-27T09:43:22.351Z,22.55
2023-01-27T09:48:29.500Z,22.34
2023-01-27T09:53:36.740Z,22.22
2023-01-27T09:58:43.902Z,22.25
2023-01-27T10:03:51.092Z,22.04
2023-01-27T10:08:58.279Z,21.94
2023-01-27T10:14:05.436Z,21.91
2023-01-27T10:19:12.628Z,21.92
2023-01-27T10:24:20.051Z,21.86
2023-01-27T10:29:27.178Z,21.74
2023-01-27T10:34:34.382Z,21.81
2023-01-27T10:39:41.586Z,21.47
2023-01-27T10:44:48.763Z,21.50
2023-01-27T10:49:55.917Z,21.39
2023-01-27T10:55:03.112Z,21.33
2023-01-27T11:00:37.943Z,21.25
2023-01-27T11:05:17.627Z,21.16
2023-01-27T11:10:24.901Z,21.12
2023-01-27T11:15:32.148Z,21.01
2023-01-27T11:20:39.321Z,20.93
2023-01-27T11:25:46.800Z,20.88
2023-01-27T11:30:54.215Z,20.78
2023-01-27T11:36:01.494Z,20.59
2023-01-27T11:41:08.703Z,20.59
2023-01-27T11:46:16.161Z,20.45
2023-01-27T11:51:23.282Z,20.40
2023-01-27T11:56:30.457Z,20.42
2023-01-27T12:01:37.622Z,20.36
2023-01-27T12:06:44.910Z,20.81
2023-01-27T12:11:52.136Z,20.52
2023-01-27T12:16:59.305Z,20.52
2023-01-27T12:22:06.470Z,20.58
2023-01-27T12:27:13.686Z,20.62
2023-01-27T12:32:20.846Z,20.58
2023-01-27T12:37:28.222Z,20.63
2023-01-27T12:42:35.443Z,20.70
2023-01-27T12:47:42.566Z,20.67
2023-01-27T12:52:49.757Z,20.71
2023-01-27T12:57:56.964Z,20.64
2023-01-27T13:03:04.127Z,20.68
2023-01-27T13:08:11.317Z,20.57
2023-01-27T13:13:18.617Z,20.69
2023-01-27T13:18:25.786Z,20.64
2023-01-27T13:23:32.961Z,25.15
2023-01-27T13:28:52.305Z,25.08
2023-01-27T13:33:47.952Z,23.50
2023-01-27T13:38:55.180Z,23.44
2023-01-27T13:44:02.383Z,22.87
2023-01-27T13:49:09.583Z,22.76
2023-01-27T13:54:16.784Z,22.60
2023-01-27T13:59:23.996Z,22.35
2023-01-27T14:04:31.224Z,23.06
2023-01-27T14:09:40.612Z,22.33
2023-01-27T14:14:57.389Z,22.33
2023-01-27T14:19:52.899Z,21.16
2023-01-27T14:25:00.085Z,22.86
2023-01-27T14:30:07.636Z,23.26
2023-01-27T14:35:14.567Z,23.05
2023-01-27T14:40:21.799Z,24.31
2023-01-27T14:45:29.054Z,23.37
2023-01-27T14:50:36.225Z,24.29
2023-01-27T14:55:43.499Z,24.36
2023-01-27T15:00:50.831Z,24.08
2023-01-27T15:05:57.867Z,23.74
2023-01-27T15:11:05.053Z,23.74
2023-01-27T15:16:12.332Z,24.65
2023-01-27T15:21:19.459Z,23.44
2023-01-27T15:26:26.700Z,24.26
2023-01-27T15:31:34.081Z,21.80
2023-01-27T15:36:41.126Z,24.40
2023-01-27T15:41:48.317Z,23.67
2023-01-27T15:46:55.570Z,23.50
2023-01-27T15:52:02.752Z,23.40
2023-01-27T15:57:09.935Z,24.39
2023-01-27T16:02:17.174Z,23.71
2023-01-27T16:07:24.242Z,24.16
2023-01-27T16:12:31.471Z,23.67
2023-01-27T16:17:38.698Z,23.95
2023-01-27T16:22:45.848Z,24.11
2023-01-27T16:27:53.067Z,23.95
2023-01-27T16:33:00.249Z,24.10
2023-01-27T16:38:07.357Z,24.08
2023-01-27T16:43:14.616Z,24.08
2023-01-27T16:48:21.879Z,24.22
2023-01-27T16:53:29.048Z,24.17
2023-01-27T16:58:46.038Z,24.15
2023-01-27T17:03:43.465Z,24.19
2023-01-27T17:08:50.614Z,24.08
2023-01-27T17:13:57.986Z,24.08
2023-01-27T17:19:05.502Z,23.98
2023-01-27T17:24:12.729Z,23.96
2023-01-27T17:29:19.858Z,23.84
2023-01-27T17:34:27.049Z,23.85
2023-01-27T17:39:34.202Z,23.62
2023-01-27T17:44:41.368Z,23.68
2023-01-27T17:49:48.856Z,23.63
2023-01-27T17:54:56.177Z,23.57
2023-01-27T18:00:03.354Z,23.27
2023-01-27T18:05:10.907Z,22.96
2023-01-27T18:10:18.405Z,22.78
2023-01-27T18:15:25.698Z,22.75
2023-01-27T18:20:33.212Z,22.82
2023-01-27T18:25:40.627Z,22.83
2023-01-27T18:30:48.121Z,23.06
2023-01-27T18:35:55.856Z,22.94
2023-01-27T18:41:03.439Z,22.96
2023-01-27T18:46:11.154Z,23.05
2023-01-27T18:51:18.530Z,23.25
2023-01-27T18:56:25.861Z,23.12
2023-01-27T19:01:35.146Z,22.96
2023-01-27T19:06:40.617Z,22.92
2023-01-27T19:11:49.137Z,23.05
2023-01-27T19:16:56.451Z,23.05
2023-01-27T19:22:03.868Z,23.03
2023-01-27T19:27:11.315Z,22.78
2023-01-27T19:32:18.875Z,22.80
2023-01-27T19:37:27.558Z,22.67
2023-01-27T19:42:35.125Z,22.81
2023-01-27T19:47:42.790Z,22.68
2023-01-27T19:52:50.208Z,22.63
2023-01-27T19:57:58.274Z,22.52
2023-01-27T20:03:05.781Z,22.55
2023-01-27T20:08:13.519Z,22.70
2023-01-27T20:13:22.036Z,22.93
2023-01-27T20:18:29.857Z,23.22
2023-01-27T20:23:37.511Z,23.35
2023-01-27T20:28:45.296Z,23.40
2023-01-27T20:33:52.803Z,22.85
2023-01-27T20:39:00.438Z,22.79
2023-01-27T20:44:07.986Z,22.72
2023-01-27T20:49:15.642Z,22.80
2023-01-27T20:54:23.234Z,22.71
2023-01-27T20:59:30.996Z,23.06
2023-01-27T21:04:38.392Z,22.55
2023-01-27T21:09:45.678Z,22.57
2023-01-27T21:14:53.208Z,22.50
2023-01-27T21:20:00.563Z,22.37
2023-01-27T21:25:07.866Z,22.50
2023-01-27T21:30:15.123Z,22.79
2023-01-27T21:35:22.296Z,22.24
2023-01-27T21:40:29.587Z,22.35
2023-01-27T21:45:37.047Z,22.15
2023-01-27T21:50:44.428Z,22.40
2023-01-27T21:55:51.690Z,22.38
2023-01-27T22:00:58.931Z,22.22
2023-01-27T22:06:06.101Z,22.57
2023-01-27T22:11:13.310Z,22.36
2023-01-27T22:16:20.512Z,22.19
2023-01-27T22:21:27.671Z,22.27
2023-01-27T22:26:34.846Z,22.23
2023-01-27T22:31:42.006Z,22.26
2023-01-27T22:36:49.199Z,22.22
2023-01-27T22:41:56.434Z,22.17
2023-01-27T22:47:03.673Z,22.23
2023-01-27T22:52:10.934Z,22.24
2023-01-27T22:57:18.149Z,22.60
2023-01-27T23:02:25.389Z,22.12
2023-01-27T23:07:32.608Z,22.16
2023-01-27T23:12:39.870Z,22.18
2023-01-27T23:17:47.077Z,21.92
2023-01-27T23:22:54.274Z,21.95
2023-01-27T23:28:01.478Z,22.14
2023-01-27T23:33:08.681Z,22.14
2023-01-27T23:38:31.495Z,22.21
2023-01-27T23:43:23.110Z,22.07
2023-01-27T23:48:30.373Z,21.91
2023-01-27T23:53:37.593Z,21.84
2023-01-27T23:58:44.805Z,21.92
